sensor_id;sensor_type;location;lat;lon;timestamp;P1;durP1;ratioP1;P2;durP2;ratioP2
34134;SDS011;20410;55.578;12.968;2023-03-01T00:01:52;23.00;;;16.00;;
34134;SDS011;20410;55.578;12.968;2023-03-01T00:04:18;17.67;;;13.53;;
34134;SDS011;20410;55.578;12.968;2023-03-01T00:06:43;22.73;;;16.33;;
34134;SDS011;20410;55.578;12.968;2023-03-01T00:09:13;19.00;;;14.33;;
34134;SDS011;20410;55.578;12.968;2023-03-01T00:11:39;19.27;;;15.60;;
34134;SDS011;20410;55.578;12.968;2023-03-01T00:14:04;19.50;;;14.90;;
34134;SDS011;20410;55.578;12.968;2023-03-01T00:16:32;20.07;;;14.03;;
34134;SDS011;20410;55.578;12.968;2023-03-01T00:18:59;17.70;;;13.30;;
34134;SDS011;20410;55.578;12.968;2023-03-01T00:21:25;21.53;;;16.27;;
34134;SDS011;20410;55.578;12.968;2023-03-01T00:23:52;22.70;;;15.47;;
34134;SDS011;20410;55.578;12.968;2023-03-01T00:26:19;17.73;;;13.80;;
34134;SDS011;20410;55.578;12.968;2023-03-01T00:28:45;20.00;;;16.07;;
34134;SDS011;20410;55.578;12.968;2023-03-01T00:31:16;20.87;;;16.40;;
34134;SDS011;20410;55.578;12.968;2023-03-01T00:33:44;19.70;;;14.43;;
34134;SDS011;20410;55.578;12.968;2023-03-01T00:36:10;18.17;;;14.53;;
34134;SDS011;20410;55.578;12.968;2023-03-01T00:38:39;18.93;;;13.13;;
34134;SDS011;20410;55.578;12.968;2023-03-01T00:41:07;19.40;;;14.47;;
34134;SDS011;20410;55.578;12.968;2023-03-01T00:43:33;17.80;;;14.13;;
34134;SDS011;20410;55.578;12.968;2023-03-01T00:46:11;18.60;;;14.50;;
34134;SDS011;20410;55.578;12.968;2023-03-01T00:48:38;16.37;;;13.67;;
34134;SDS011;20410;55.578;12.968;2023-03-01T00:51:07;19.30;;;13.83;;
34134;SDS011;20410;55.578;12.968;2023-03-01T00:53:35;19.57;;;15.27;;
34134;SDS011;20410;55.578;12.968;2023-03-01T00:56:01;19.93;;;15.23;;
34134;SDS011;20410;55.578;12.968;2023-03-01T00:58:27;20.77;;;15.33;;
34134;SDS011;20410;55.578;12.968;2023-03-01T01:00:53;22.30;;;16.30;;
34134;SDS011;20410;55.578;12.968;2023-03-01T01:03:19;17.93;;;14.07;;
34134;SDS011;20410;55.578;12.968;2023-03-01T01:05:45;20.80;;;15.57;;
34134;SDS011;20410;55.578;12.968;2023-03-01T01:08:10;22.57;;;15.70;;
34134;SDS011;20410;55.578;12.968;2023-03-01T01:10:36;18.20;;;14.67;;
34134;SDS011;20410;55.578;12.968;2023-03-01T01:13:02;19.53;;;15.30;;
34134;SDS011;20410;55.578;12.968;2023-03-01T01:15:28;18.80;;;15.13;;
34134;SDS011;20410;55.578;12.968;2023-03-01T01:17:54;21.80;;;16.80;;
34134;SDS011;20410;55.578;12.968;2023-03-01T01:20:20;18.67;;;15.60;;
34134;SDS011;20410;55.578;12.968;2023-03-01T01:22:45;21.57;;;15.47;;
34134;SDS011;20410;55.578;12.968;2023-03-01T01:25:11;16.67;;;14.13;;
34134;SDS011;20410;55.578;12.968;2023-03-01T01:27:37;20.97;;;15.13;;
34134;SDS011;20410;55.578;12.968;2023-03-01T01:30:03;18.77;;;15.03;;
34134;SDS011;20410;55.578;12.968;2023-03-01T01:32:29;18.10;;;14.87;;
34134;SDS011;20410;55.578;12.968;2023-03-01T01:34:54;18.73;;;15.43;;
34134;SDS011;20410;55.578;12.968;2023-03-01T01:37:20;19.37;;;14.87;;
34134;SDS011;20410;55.578;12.968;2023-03-01T01:39:46;19.00;;;14.67;;
34134;SDS011;20410;55.578;12.968;2023-03-01T01:42:15;18.53;;;14.20;;
34134;SDS011;20410;55.578;12.968;2023-03-01T01:44:42;19.03;;;15.37;;
34134;SDS011;20410;55.578;12.968;2023-03-01T01:47:14;16.60;;;13.67;;
34134;SDS011;20410;55.578;12.968;2023-03-01T01:49:47;19.57;;;15.43;;
34134;SDS011;20410;55.578;12.968;2023-03-01T01:57:37;17.67;;;14.60;;
34134;SDS011;20410;55.578;12.968;2023-03-01T02:00:17;19.93;;;14.27;;
34134;SDS011;20410;55.578;12.968;2023-03-01T02:02:46;18.20;;;15.73;;
34134;SDS011;20410;55.578;12.968;2023-03-01T02:05:19;17.47;;;14.43;;
34134;SDS011;20410;55.578;12.968;2023-03-01T02:08:02;16.63;;;14.13;;
34134;SDS011;20410;55.578;12.968;2023-03-01T02:10:28;19.17;;;15.70;;
34134;SDS011;20410;55.578;12.968;2023-03-01T02:12:57;18.50;;;14.60;;
34134;SDS011;20410;55.578;12.968;2023-03-01T02:15:23;18.57;;;14.83;;
34134;SDS011;20410;55.578;12.968;2023-03-01T02:17:49;20.97;;;16.70;;
34134;SDS011;20410;55.578;12.968;2023-03-01T02:23:02;21.37;;;15.63;;
34134;SDS011;20410;55.578;12.968;2023-03-01T02:25:31;19.60;;;15.77;;
34134;SDS011;20410;55.578;12.968;2023-03-01T02:30:45;22.53;;;16.53;;
34134;SDS011;20410;55.578;12.968;2023-03-01T02:33:31;21.23;;;16.53;;
34134;SDS011;20410;55.578;12.968;2023-03-01T02:36:01;18.87;;;15.90;;
34134;SDS011;20410;55.578;12.968;2023-03-01T02:38:30;20.83;;;17.27;;
34134;SDS011;20410;55.578;12.968;2023-03-01T02:40:56;24.47;;;19.30;;
34134;SDS011;20410;55.578;12.968;2023-03-01T02:43:23;21.00;;;17.00;;
34134;SDS011;20410;55.578;12.968;2023-03-01T02:45:57;21.63;;;17.90;;
34134;SDS011;20410;55.578;12.968;2023-03-01T02:48:38;23.03;;;17.33;;
34134;SDS011;20410;55.578;12.968;2023-03-01T02:56:52;23.63;;;18.03;;
34134;SDS011;20410;55.578;12.968;2023-03-01T02:59:19;21.07;;;17.50;;
34134;SDS011;20410;55.578;12.968;2023-03-01T03:01:47;21.83;;;16.83;;
34134;SDS011;20410;55.578;12.968;2023-03-01T03:04:15;22.60;;;17.93;;
34134;SDS011;20410;55.578;12.968;2023-03-01T03:06:44;21.93;;;17.10;;
34134;SDS011;20410;55.578;12.968;2023-03-01T03:09:10;22.00;;;16.70;;
34134;SDS011;20410;55.578;12.968;2023-03-01T03:11:36;21.07;;;16.20;;
34134;SDS011;20410;55.578;12.968;2023-03-01T03:14:04;20.33;;;16.40;;
34134;SDS011;20410;55.578;12.968;2023-03-01T03:16:30;21.40;;;17.20;;
34134;SDS011;20410;55.578;12.968;2023-03-01T03:18:55;23.47;;;18.03;;
34134;SDS011;20410;55.578;12.968;2023-03-01T03:21:31;21.40;;;15.90;;
34134;SDS011;20410;55.578;12.968;2023-03-01T03:23:57;22.23;;;17.00;;
34134;SDS011;20410;55.578;12.968;2023-03-01T03:26:23;22.67;;;17.90;;
34134;SDS011;20410;55.578;12.968;2023-03-01T03:28:49;22.30;;;18.43;;
34134;SDS011;20410;55.578;12.968;2023-03-01T03:31:14;20.73;;;16.53;;
34134;SDS011;20410;55.578;12.968;2023-03-01T03:33:40;23.17;;;17.47;;
34134;SDS011;20410;55.578;12.968;2023-03-01T03:36:05;23.67;;;17.67;;
34134;SDS011;20410;55.578;12.968;2023-03-01T03:38:31;23.10;;;17.87;;
34134;SDS011;20410;55.578;12.968;2023-03-01T03:41:01;21.60;;;17.20;;
34134;SDS011;20410;55.578;12.968;2023-03-01T03:43:32;22.27;;;16.43;;
34134;SDS011;20410;55.578;12.968;2023-03-01T03:45:59;23.43;;;17.60;;
34134;SDS011;20410;55.578;12.968;2023-03-01T03:48:26;22.00;;;16.87;;
34134;SDS011;20410;55.578;12.968;2023-03-01T03:50:52;22.00;;;18.13;;
34134;SDS011;20410;55.578;12.968;2023-03-01T03:53:20;25.80;;;18.90;;
34134;SDS011;20410;55.578;12.968;2023-03-01T03:55:46;23.60;;;18.20;;
34134;SDS011;20410;55.578;12.968;2023-03-01T03:58:14;24.07;;;17.40;;
34134;SDS011;20410;55.578;12.968;2023-03-01T04:00:41;25.83;;;18.27;;
34134;SDS011;20410;55.578;12.968;2023-03-01T04:03:09;26.97;;;18.57;;
34134;SDS011;20410;55.578;12.968;2023-03-01T04:05:36;27.13;;;19.27;;
34134;SDS011;20410;55.578;12.968;2023-03-01T04:08:03;24.27;;;18.40;;
34134;SDS011;20410;55.578;12.968;2023-03-01T04:10:33;21.13;;;16.43;;
34134;SDS011;20410;55.578;12.968;2023-03-01T04:13:01;19.17;;;14.57;;
34134;SDS011;20410;55.578;12.968;2023-03-01T04:15:27;21.30;;;16.37;;
34134;SDS011;20410;55.578;12.968;2023-03-01T04:17:53;26.03;;;19.53;;
34134;SDS011;20410;55.578;12.968;2023-03-01T04:20:24;28.50;;;19.93;;
34134;SDS011;20410;55.578;12.968;2023-03-01T04:22:52;26.67;;;20.27;;
34134;SDS011;20410;55.578;12.968;2023-03-01T04:25:22;26.50;;;19.60;;
34134;SDS011;20410;55.578;12.968;2023-03-01T04:27:48;29.07;;;22.10;;
34134;SDS011;20410;55.578;12.968;2023-03-01T04:30:15;31.30;;;22.00;;
34134;SDS011;20410;55.578;12.968;2023-03-01T04:32:40;29.67;;;20.83;;
34134;SDS011;20410;55.578;12.968;2023-03-01T04:35:06;28.10;;;20.93;;
34134;SDS011;20410;55.578;12.968;2023-03-01T04:37:32;31.00;;;22.90;;
34134;SDS011;20410;55.578;12.968;2023-03-01T04:39:57;26.70;;;19.83;;
34134;SDS011;20410;55.578;12.968;2023-03-01T04:42:23;30.87;;;21.07;;
34134;SDS011;20410;55.578;12.968;2023-03-01T04:44:49;35.97;;;24.90;;
34134;SDS011;20410;55.578;12.968;2023-03-01T04:47:16;30.07;;;20.83;;
34134;SDS011;20410;55.578;12.968;2023-03-01T04:49:42;33.27;;;23.60;;
34134;SDS011;20410;55.578;12.968;2023-03-01T04:52:07;33.20;;;21.53;;
34134;SDS011;20410;55.578;12.968;2023-03-01T04:54:34;30.73;;;21.60;;
34134;SDS011;20410;55.578;12.968;2023-03-01T04:57:01;45.23;;;25.20;;
34134;SDS011;20410;55.578;12.968;2023-03-01T04:59:27;38.50;;;24.03;;
34134;SDS011;20410;55.578;12.968;2023-03-01T05:01:54;125.50;;;40.67;;
34134;SDS011;20410;55.578;12.968;2023-03-01T05:04:21;88.47;;;40.63;;
34134;SDS011;20410;55.578;12.968;2023-03-01T05:06:47;124.77;;;49.17;;
34134;SDS011;20410;55.578;12.968;2023-03-01T05:09:13;74.33;;;44.00;;
34134;SDS011;20410;55.578;12.968;2023-03-01T05:11:38;71.40;;;40.07;;
34134;SDS011;20410;55.578;12.968;2023-03-01T05:14:04;100.73;;;42.67;;
34134;SDS011;20410;55.578;12.968;2023-03-01T05:16:31;67.23;;;40.33;;
34134;SDS011;20410;55.578;12.968;2023-03-01T05:18:57;60.07;;;37.03;;
34134;SDS011;20410;55.578;12.968;2023-03-01T05:21:23;60.07;;;36.23;;
34134;SDS011;20410;55.578;12.968;2023-03-01T05:23:50;69.40;;;38.80;;
34134;SDS011;20410;55.578;12.968;2023-03-01T05:26:16;76.17;;;41.20;;
34134;SDS011;20410;55.578;12.968;2023-03-01T05:28:43;62.97;;;36.97;;
34134;SDS011;20410;55.578;12.968;2023-03-01T05:31:09;66.43;;;39.33;;
34134;SDS011;20410;55.578;12.968;2023-03-01T05:33:38;64.90;;;38.93;;
34134;SDS011;20410;55.578;12.968;2023-03-01T05:36:07;72.83;;;40.20;;
34134;SDS011;20410;55.578;12.968;2023-03-01T05:38:34;56.03;;;34.53;;
34134;SDS011;20410;55.578;12.968;2023-03-01T05:41:00;53.03;;;31.43;;
34134;SDS011;20410;55.578;12.968;2023-03-01T05:43:29;54.03;;;33.87;;
34134;SDS011;20410;55.578;12.968;2023-03-01T05:45:57;48.10;;;32.07;;
34134;SDS011;20410;55.578;12.968;2023-03-01T05:48:23;51.13;;;33.27;;
34134;SDS011;20410;55.578;12.968;2023-03-01T05:50:48;49.57;;;29.83;;
34134;SDS011;20410;55.578;12.968;2023-03-01T05:53:18;49.37;;;30.73;;
34134;SDS011;20410;55.578;12.968;2023-03-01T05:55:47;44.03;;;28.83;;
34134;SDS011;20410;55.578;12.968;2023-03-01T05:58:16;48.07;;;30.43;;
34134;SDS011;20410;55.578;12.968;2023-03-01T06:00:44;39.23;;;27.17;;
34134;SDS011;20410;55.578;12.968;2023-03-01T06:03:11;39.77;;;25.30;;
34134;SDS011;20410;55.578;12.968;2023-03-01T06:05:38;38.80;;;26.90;;
34134;SDS011;20410;55.578;12.968;2023-03-01T06:08:04;39.33;;;26.47;;
34134;SDS011;20410;55.578;12.968;2023-03-01T06:10:30;40.50;;;26.30;;
34134;SDS011;20410;55.578;12.968;2023-03-01T06:12:56;41.07;;;27.50;;
34134;SDS011;20410;55.578;12.968;2023-03-01T06:15:23;46.57;;;27.87;;
34134;SDS011;20410;55.578;12.968;2023-03-01T06:17:49;40.93;;;26.43;;
34134;SDS011;20410;55.578;12.968;2023-03-01T06:20:19;41.63;;;25.90;;
34134;SDS011;20410;55.578;12.968;2023-03-01T06:22:46;39.30;;;25.60;;
34134;SDS011;20410;55.578;12.968;2023-03-01T06:25:14;39.97;;;26.00;;
34134;SDS011;20410;55.578;12.968;2023-03-01T06:27:42;37.77;;;26.33;;
34134;SDS011;20410;55.578;12.968;2023-03-01T06:30:09;37.63;;;26.70;;
34134;SDS011;20410;55.578;12.968;2023-03-01T06:32:36;40.87;;;26.90;;
34134;SDS011;20410;55.578;12.968;2023-03-01T06:35:02;41.30;;;27.23;;
34134;SDS011;20410;55.578;12.968;2023-03-01T06:37:29;35.77;;;24.80;;
34134;SDS011;20410;55.578;12.968;2023-03-01T06:39:54;43.13;;;25.87;;
34134;SDS011;20410;55.578;12.968;2023-03-01T06:42:20;40.23;;;25.83;;
34134;SDS011;20410;55.578;12.968;2023-03-01T06:44:46;35.10;;;26.30;;
34134;SDS011;20410;55.578;12.968;2023-03-01T06:47:11;41.63;;;28.53;;
34134;SDS011;20410;55.578;12.968;2023-03-01T06:49:37;48.30;;;28.27;;
34134;SDS011;20410;55.578;12.968;2023-03-01T06:52:03;55.33;;;30.80;;
34134;SDS011;20410;55.578;12.968;2023-03-01T06:54:28;57.67;;;31.30;;
34134;SDS011;20410;55.578;12.968;2023-03-01T06:56:54;70.10;;;34.00;;
34134;SDS011;20410;55.578;12.968;2023-03-01T06:59:20;61.73;;;33.40;;
34134;SDS011;20410;55.578;12.968;2023-03-01T07:01:45;67.97;;;33.10;;
34134;SDS011;20410;55.578;12.968;2023-03-01T07:04:12;157.67;;;38.53;;
34134;SDS011;20410;55.578;12.968;2023-03-01T07:06:38;348.90;;;46.30;;
34134;SDS011;20410;55.578;12.968;2023-03-01T07:09:04;594.47;;;51.60;;
34134;SDS011;20410;55.578;12.968;2023-03-01T07:11:30;409.23;;;40.77;;
34134;SDS011;20410;55.578;12.968;2023-03-01T07:13:55;614.93;;;48.50;;
34134;SDS011;20410;55.578;12.968;2023-03-01T07:16:21;299.10;;;28.80;;
34134;SDS011;20410;55.578;12.968;2023-03-01T07:18:47;389.03;;;34.23;;
34134;SDS011;20410;55.578;12.968;2023-03-01T07:21:13;620.90;;;42.07;;
34134;SDS011;20410;55.578;12.968;2023-03-01T07:23:40;242.43;;;28.80;;
34134;SDS011;20410;55.578;12.968;2023-03-01T07:26:06;218.40;;;25.50;;
34134;SDS011;20410;55.578;12.968;2023-03-01T07:28:31;221.40;;;26.97;;
34134;SDS011;20410;55.578;12.968;2023-03-01T07:31:04;416.87;;;35.37;;
34134;SDS011;20410;55.578;12.968;2023-03-01T07:33:31;292.40;;;28.73;;
34134;SDS011;20410;55.578;12.968;2023-03-01T07:35:58;306.43;;;28.10;;
34134;SDS011;20410;55.578;12.968;2023-03-01T07:38:25;139.63;;;20.87;;
34134;SDS011;20410;55.578;12.968;2023-03-01T07:40:51;238.87;;;26.23;;
34134;SDS011;20410;55.578;12.968;2023-03-01T07:43:17;183.30;;;22.00;;
34134;SDS011;20410;55.578;12.968;2023-03-01T07:45:42;155.23;;;22.10;;
34134;SDS011;20410;55.578;12.968;2023-03-01T07:48:09;92.47;;;19.80;;
34134;SDS011;20410;55.578;12.968;2023-03-01T07:50:35;107.40;;;18.57;;
34134;SDS011;20410;55.578;12.968;2023-03-01T07:53:00;145.37;;;16.97;;
34134;SDS011;20410;55.578;12.968;2023-03-01T07:55:27;150.23;;;19.57;;
34134;SDS011;20410;55.578;12.968;2023-03-01T07:57:53;133.53;;;19.17;;
34134;SDS011;20410;55.578;12.968;2023-03-01T08:00:18;118.60;;;17.30;;
34134;SDS011;20410;55.578;12.968;2023-03-01T08:02:45;95.97;;;17.90;;
34134;SDS011;20410;55.578;12.968;2023-03-01T08:05:11;188.53;;;19.87;;
34134;SDS011;20410;55.578;12.968;2023-03-01T08:07:36;114.77;;;18.07;;
34134;SDS011;20410;55.578;12.968;2023-03-01T08:10:02;295.87;;;26.07;;
34134;SDS011;20410;55.578;12.968;2023-03-01T08:12:28;127.87;;;17.53;;
34134;SDS011;20410;55.578;12.968;2023-03-01T08:14:54;267.47;;;22.60;;
34134;SDS011;20410;55.578;12.968;2023-03-01T08:17:20;137.53;;;21.07;;
34134;SDS011;20410;55.578;12.968;2023-03-01T08:19:45;313.40;;;25.17;;
34134;SDS011;20410;55.578;12.968;2023-03-01T08:22:11;111.73;;;17.90;;
34134;SDS011;20410;55.578;12.968;2023-03-01T08:24:37;105.73;;;18.00;;
34134;SDS011;20410;55.578;12.968;2023-03-01T08:27:02;155.37;;;20.30;;
34134;SDS011;20410;55.578;12.968;2023-03-01T08:29:30;107.50;;;16.57;;
34134;SDS011;20410;55.578;12.968;2023-03-01T08:31:56;141.90;;;19.13;;
34134;SDS011;20410;55.578;12.968;2023-03-01T08:34:22;85.60;;;15.47;;
34134;SDS011;20410;55.578;12.968;2023-03-01T08:36:47;113.63;;;15.43;;
34134;SDS011;20410;55.578;12.968;2023-03-01T08:39:15;52.17;;;14.43;;
34134;SDS011;20410;55.578;12.968;2023-03-01T08:41:44;71.83;;;14.90;;
34134;SDS011;20410;55.578;12.968;2023-03-01T08:44:10;85.83;;;16.90;;
34134;SDS011;20410;55.578;12.968;2023-03-01T08:46:38;90.47;;;16.47;;
34134;SDS011;20410;55.578;12.968;2023-03-01T08:49:06;51.83;;;13.70;;
34134;SDS011;20410;55.578;12.968;2023-03-01T08:51:33;44.97;;;13.63;;
34134;SDS011;20410;55.578;12.968;2023-03-01T08:54:02;100.17;;;16.20;;
34134;SDS011;20410;55.578;12.968;2023-03-01T08:56:35;37.97;;;13.23;;
34134;SDS011;20410;55.578;12.968;2023-03-01T08:59:00;35.70;;;13.20;;
34134;SDS011;20410;55.578;12.968;2023-03-01T09:01:26;39.03;;;13.33;;
34134;SDS011;20410;55.578;12.968;2023-03-01T09:03:51;32.37;;;13.43;;
34134;SDS011;20410;55.578;12.968;2023-03-01T09:06:17;31.33;;;11.70;;
34134;SDS011;20410;55.578;12.968;2023-03-01T09:08:44;16.90;;;9.73;;
34134;SDS011;20410;55.578;12.968;2023-03-01T09:11:12;14.00;;;9.20;;
34134;SDS011;20410;55.578;12.968;2023-03-01T09:13:40;15.63;;;10.90;;
34134;SDS011;20410;55.578;12.968;2023-03-01T09:16:07;17.00;;;9.90;;
34134;SDS011;20410;55.578;12.968;2023-03-01T09:18:33;16.70;;;10.20;;
34134;SDS011;20410;55.578;12.968;2023-03-01T09:21:13;15.03;;;9.13;;
34134;SDS011;20410;55.578;12.968;2023-03-01T09:23:44;17.57;;;10.47;;
34134;SDS011;20410;55.578;12.968;2023-03-01T09:26:20;12.37;;;8.30;;
34134;SDS011;20410;55.578;12.968;2023-03-01T09:28:47;13.03;;;9.37;;
34134;SDS011;20410;55.578;12.968;2023-03-01T09:31:14;15.50;;;9.37;;
34134;SDS011;20410;55.578;12.968;2023-03-01T09:33:41;13.17;;;9.27;;
34134;SDS011;20410;55.578;12.968;2023-03-01T09:36:11;12.97;;;8.57;;
34134;SDS011;20410;55.578;12.968;2023-03-01T09:38:38;14.57;;;9.30;;
34134;SDS011;20410;55.578;12.968;2023-03-01T09:41:09;13.87;;;9.17;;
34134;SDS011;20410;55.578;12.968;2023-03-01T09:46:41;13.37;;;8.83;;
34134;SDS011;20410;55.578;12.968;2023-03-01T09:49:12;12.57;;;7.83;;
34134;SDS011;20410;55.578;12.968;2023-03-01T09:51:48;11.83;;;8.43;;
34134;SDS011;20410;55.578;12.968;2023-03-01T09:54:23;8.47;;;7.57;;
34134;SDS011;20410;55.578;12.968;2023-03-01T09:59:31;11.13;;;7.50;;
34134;SDS011;20410;55.578;12.968;2023-03-01T10:02:35;14.10;;;7.93;;
34134;SDS011;20410;55.578;12.968;2023-03-01T10:05:27;8.53;;;6.90;;
34134;SDS011;20410;55.578;12.968;2023-03-01T10:08:21;7.33;;;6.07;;
34134;SDS011;20410;55.578;12.968;2023-03-01T10:10:55;11.33;;;6.93;;
34134;SDS011;20410;55.578;12.968;2023-03-01T10:13:24;7.47;;;6.10;;
34134;SDS011;20410;55.578;12.968;2023-03-01T10:15:57;7.53;;;6.13;;
34134;SDS011;20410;55.578;12.968;2023-03-01T10:18:39;7.33;;;6.63;;
34134;SDS011;20410;55.578;12.968;2023-03-01T10:21:14;7.77;;;5.97;;
34134;SDS011;20410;55.578;12.968;2023-03-01T10:23:42;8.60;;;6.77;;
34134;SDS011;20410;55.578;12.968;2023-03-01T10:26:24;7.53;;;6.57;;
34134;SDS011;20410;55.578;12.968;2023-03-01T10:28:58;6.60;;;5.13;;
34134;SDS011;20410;55.578;12.968;2023-03-01T10:31:40;8.37;;;6.97;;
34134;SDS011;20410;55.578;12.968;2023-03-01T10:36:50;8.77;;;5.87;;
34134;SDS011;20410;55.578;12.968;2023-03-01T10:39:18;7.07;;;6.10;;
34134;SDS011;20410;55.578;12.968;2023-03-01T10:47:15;7.67;;;5.23;;
34134;SDS011;20410;55.578;12.968;2023-03-01T10:49:56;8.23;;;6.20;;
34134;SDS011;20410;55.578;12.968;2023-03-01T10:52:29;8.67;;;6.43;;
34134;SDS011;20410;55.578;12.968;2023-03-01T10:55:01;8.13;;;6.53;;
34134;SDS011;20410;55.578;12.968;2023-03-01T10:57:46;10.00;;;6.93;;
34134;SDS011;20410;55.578;12.968;2023-03-01T11:05:34;10.13;;;7.10;;
34134;SDS011;20410;55.578;12.968;2023-03-01T11:08:01;7.07;;;6.37;;
34134;SDS011;20410;55.578;12.968;2023-03-01T11:13:08;7.97;;;7.10;;
34134;SDS011;20410;55.578;12.968;2023-03-01T11:15:41;7.27;;;6.40;;
34134;SDS011;20410;55.578;12.968;2023-03-01T11:18:26;7.57;;;6.60;;
34134;SDS011;20410;55.578;12.968;2023-03-01T11:20:52;8.77;;;6.83;;
34134;SDS011;20410;55.578;12.968;2023-03-01T11:23:19;7.30;;;6.60;;
34134;SDS011;20410;55.578;12.968;2023-03-01T11:26:05;10.07;;;7.33;;
34134;SDS011;20410;55.578;12.968;2023-03-01T11:28:34;7.90;;;7.10;;
34134;SDS011;20410;55.578;12.968;2023-03-01T11:31:05;6.80;;;6.20;;
34134;SDS011;20410;55.578;12.968;2023-03-01T11:38:32;8.13;;;6.60;;
34134;SDS011;20410;55.578;12.968;2023-03-01T11:43:53;6.83;;;5.93;;
34134;SDS011;20410;55.578;12.968;2023-03-01T11:49:20;10.20;;;6.50;;
34134;SDS011;20410;55.578;12.968;2023-03-01T11:52:15;6.80;;;6.10;;
34134;SDS011;20410;55.578;12.968;2023-03-01T11:57:56;7.63;;;4.90;;
34134;SDS011;20410;55.578;12.968;2023-03-01T12:09:17;4.40;;;4.00;;
34134;SDS011;20410;55.578;12.968;2023-03-01T12:36:57;5.50;;;4.40;;
34134;SDS011;20410;55.578;12.968;2023-03-01T12:43:14;3.50;;;3.00;;
34134;SDS011;20410;55.578;12.968;2023-03-01T12:51:17;3.73;;;2.77;;
34134;SDS011;20410;55.578;12.968;2023-03-01T12:53:48;2.87;;;2.67;;
34134;SDS011;20410;55.578;12.968;2023-03-01T12:56:16;3.50;;;2.73;;
34134;SDS011;20410;55.578;12.968;2023-03-01T12:59:01;2.83;;;2.57;;
34134;SDS011;20410;55.578;12.968;2023-03-01T13:11:58;2.40;;;2.20;;
34134;SDS011;20410;55.578;12.968;2023-03-01T13:16:49;3.47;;;2.33;;
34134;SDS011;20410;55.578;12.968;2023-03-01T13:19:25;5.13;;;2.40;;
34134;SDS011;20410;55.578;12.968;2023-03-01T13:22:01;3.70;;;2.10;;
34134;SDS011;20410;55.578;12.968;2023-03-01T13:25:01;3.83;;;2.20;;
34134;SDS011;20410;55.578;12.968;2023-03-01T13:27:38;2.47;;;2.27;;
34134;SDS011;20410;55.578;12.968;2023-03-01T13:30:12;4.00;;;2.30;;
34134;SDS011;20410;55.578;12.968;2023-03-01T13:34:06;3.70;;;2.00;;
34134;SDS011;20410;55.578;12.968;2023-03-01T13:36:05;2.13;;;1.73;;
34134;SDS011;20410;55.578;12.968;2023-03-01T13:38:37;3.30;;;2.07;;
34134;SDS011;20410;55.578;12.968;2023-03-01T13:44:13;3.77;;;2.20;;
34134;SDS011;20410;55.578;12.968;2023-03-01T13:46:43;5.90;;;2.33;;
34134;SDS011;20410;55.578;12.968;2023-03-01T13:49:11;2.40;;;2.20;;
34134;SDS011;20410;55.578;12.968;2023-03-01T13:51:41;2.87;;;2.20;;
34134;SDS011;20410;55.578;12.968;2023-03-01T13:54:11;5.37;;;2.77;;
34134;SDS011;20410;55.578;12.968;2023-03-01T13:56:39;2.37;;;2.13;;
34134;SDS011;20410;55.578;12.968;2023-03-01T13:59:06;4.23;;;2.60;;
34134;SDS011;20410;55.578;12.968;2023-03-01T14:01:51;2.20;;;2.00;;
34134;SDS011;20410;55.578;12.968;2023-03-01T14:04:28;6.23;;;2.87;;
34134;SDS011;20410;55.578;12.968;2023-03-01T14:09:47;3.17;;;2.20;;
34134;SDS011;20410;55.578;12.968;2023-03-01T14:15:19;3.70;;;2.73;;
34134;SDS011;20410;55.578;12.968;2023-03-01T14:17:53;2.33;;;1.80;;
34134;SDS011;20410;55.578;12.968;2023-03-01T14:20:33;2.37;;;2.13;;
34134;SDS011;20410;55.578;12.968;2023-03-01T14:23:10;2.10;;;1.90;;
34134;SDS011;20410;55.578;12.968;2023-03-01T14:25:38;2.07;;;1.97;;
34134;SDS011;20410;55.578;12.968;2023-03-01T14:33:59;3.00;;;1.90;;
34134;SDS011;20410;55.578;12.968;2023-03-01T14:36:29;3.43;;;1.63;;
34134;SDS011;20410;55.578;12.968;2023-03-01T14:38:56;3.77;;;2.03;;
34134;SDS011;20410;55.578;12.968;2023-03-01T14:41:30;2.00;;;1.90;;
34134;SDS011;20410;55.578;12.968;2023-03-01T14:44:00;2.67;;;2.47;;
34134;SDS011;20410;55.578;12.968;2023-03-01T14:46:32;3.43;;;2.00;;
34134;SDS011;20410;55.578;12.968;2023-03-01T14:49:04;2.53;;;2.07;;
34134;SDS011;20410;55.578;12.968;2023-03-01T14:51:41;4.40;;;2.20;;
34134;SDS011;20410;55.578;12.968;2023-03-01T14:54:18;2.20;;;2.07;;
34134;SDS011;20410;55.578;12.968;2023-03-01T14:56:45;2.17;;;1.97;;
34134;SDS011;20410;55.578;12.968;2023-03-01T14:59:12;4.77;;;2.17;;
34134;SDS011;20410;55.578;12.968;2023-03-01T15:01:38;2.50;;;2.30;;
34134;SDS011;20410;55.578;12.968;2023-03-01T15:04:06;4.00;;;2.47;;
34134;SDS011;20410;55.578;12.968;2023-03-01T15:06:35;2.40;;;2.20;;
34134;SDS011;20410;55.578;12.968;2023-03-01T15:09:02;2.13;;;1.93;;
34134;SDS011;20410;55.578;12.968;2023-03-01T15:11:30;5.73;;;2.00;;
34134;SDS011;20410;55.578;12.968;2023-03-01T15:13:57;2.57;;;2.23;;
34134;SDS011;20410;55.578;12.968;2023-03-01T15:18:51;2.47;;;1.80;;
34134;SDS011;20410;55.578;12.968;2023-03-01T15:21:21;1.90;;;1.80;;
34134;SDS011;20410;55.578;12.968;2023-03-01T15:23:50;2.60;;;2.17;;
34134;SDS011;20410;55.578;12.968;2023-03-01T15:26:26;2.43;;;1.87;;
34134;SDS011;20410;55.578;12.968;2023-03-01T15:28:55;5.27;;;2.00;;
34134;SDS011;20410;55.578;12.968;2023-03-01T15:31:25;2.20;;;1.50;;
34134;SDS011;20410;55.578;12.968;2023-03-01T15:34:07;3.07;;;2.07;;
34134;SDS011;20410;55.578;12.968;2023-03-01T15:36:46;2.67;;;1.73;;
34134;SDS011;20410;55.578;12.968;2023-03-01T15:41:53;2.73;;;2.33;;
34134;SDS011;20410;55.578;12.968;2023-03-01T15:44:33;2.60;;;2.33;;
34134;SDS011;20410;55.578;12.968;2023-03-01T15:47:01;3.87;;;2.00;;
34134;SDS011;20410;55.578;12.968;2023-03-01T15:49:46;7.37;;;2.73;;
34134;SDS011;20410;55.578;12.968;2023-03-01T15:57:25;2.23;;;2.03;;
34134;SDS011;20410;55.578;12.968;2023-03-01T15:59:51;1.87;;;1.77;;
34134;SDS011;20410;55.578;12.968;2023-03-01T16:02:16;3.10;;;1.90;;
34134;SDS011;20410;55.578;12.968;2023-03-01T16:04:42;2.63;;;2.17;;
34134;SDS011;20410;55.578;12.968;2023-03-01T16:07:08;2.77;;;2.27;;
34134;SDS011;20410;55.578;12.968;2023-03-01T16:09:34;3.13;;;2.10;;
34134;SDS011;20410;55.578;12.968;2023-03-01T16:12:00;2.63;;;2.40;;
34134;SDS011;20410;55.578;12.968;2023-03-01T16:14:26;3.23;;;2.47;;
34134;SDS011;20410;55.578;12.968;2023-03-01T16:16:52;2.87;;;2.10;;
34134;SDS011;20410;55.578;12.968;2023-03-01T16:19:18;6.37;;;2.30;;
34134;SDS011;20410;55.578;12.968;2023-03-01T16:21:43;2.70;;;2.00;;
34134;SDS011;20410;55.578;12.968;2023-03-01T16:24:11;2.70;;;2.50;;
34134;SDS011;20410;55.578;12.968;2023-03-01T16:26:38;3.17;;;2.53;;
34134;SDS011;20410;55.578;12.968;2023-03-01T16:29:03;2.77;;;2.13;;
34134;SDS011;20410;55.578;12.968;2023-03-01T16:31:29;3.80;;;2.47;;
34134;SDS011;20410;55.578;12.968;2023-03-01T16:33:55;3.00;;;2.13;;
34134;SDS011;20410;55.578;12.968;2023-03-01T16:36:22;3.63;;;2.40;;
34134;SDS011;20410;55.578;12.968;2023-03-01T16:38:50;4.07;;;1.87;;
34134;SDS011;20410;55.578;12.968;2023-03-01T16:41:17;2.80;;;2.60;;